Time;durP1;ratioP1;P1;durP2;ratioP2;P2;SDS_P1;SDS_P2;PMS_P1;PMS_P2;Temp;Humidity;BMP_temperature;BMP_pressure;BME280_temperature;BME280_humidity;BME280_pressure;Samples;Min_cycle;Max_cycle;Signal;HPM_P1;HPM_P2
2021/03/29 00:00:46;;;;;;;13.85;10.63;;;9.70;87.20;;;;;;5077379;28;20412;-72
2021/03/29 00:03:13;;;;;;;16.10;13.75;;;9.70;87.40;;;;;;5077206;28;20119;-72
2021/03/29 00:05:39;;;;;;;19.05;14.80;;;9.70;88.60;;;;;;5077199;28;20045;-72
2021/03/29 00:08:11;;;;;;;18.13;15.80;;;9.60;90.20;;;;;;5059535;28;20021;-72
2021/03/29 00:10:39;;;;;;;20.65;15.65;;;9.60;90.80;;;;;;5077100;28;20021;-72
2021/03/29 00:13:06;;;;;;;22.90;17.63;;;9.60;91.10;;;;;;5077020;28;20020;-72
2021/03/29 00:15:38;;;;;;;23.27;16.00;;;9.60;91.50;;;;;;5077167;28;20016;-72
2021/03/29 00:18:10;;;;;;;21.02;15.15;;;9.50;90.90;;;;;;5077152;28;20016;-72
2021/03/29 00:20:39;;;;;;;22.45;14.50;;;9.50;90.90;;;;;;5077044;28;20099;-74
2021/03/29 00:23:05;;;;;;;21.33;14.07;;;9.40;91.10;;;;;;5077108;28;20103;-71
2021/03/29 00:25:33;;;;;;;16.80;14.07;;;9.30;90.50;;;;;;5076949;28;20056;-72
2021/03/29 00:27:59;;;;;;;15.63;13.13;;;9.30;90.60;;;;;;5059096;28;20330;-72
2021/03/29 00:30:35;;;;;;;14.70;11.15;;;9.30;90.50;;;;;;5076947;28;20028;-72
2021/03/29 00:33:07;;;;;;;14.88;10.70;;;9.40;89.40;;;;;;5077106;28;20090;-71
2021/03/29 00:35:37;;;;;;;15.60;11.07;;;9.40;88.70;;;;;;5076912;28;20039;-72
2021/03/29 00:38:05;;;;;;;14.70;11.57;;;9.40;88.70;;;;;;5059388;28;20364;-71
2021/03/29 00:40:31;;;;;;;13.65;10.90;;;9.40;88.80;;;;;;5076804;28;20074;-71
2021/03/29 00:43:07;;;;;;;17.20;11.10;;;9.40;88.80;;;;;;5076751;28;20025;-71
2021/03/29 00:45:33;;;;;;;15.05;11.23;;;9.50;88.30;;;;;;5076759;28;20035;-73
2021/03/29 00:48:00;;;;;;;11.88;10.63;;;9.60;87.90;;;;;;5076818;28;20099;-71
2021/03/29 00:50:45;;;;;;;17.33;11.93;;;9.60;87.90;;;;;;5076664;28;20028;-71
2021/03/29 00:53:13;;;;;;;16.05;14.15;;;9.50;88.10;;;;;;5077011;28;20112;-71
2021/03/29 00:55:43;;;;;;;14.77;11.88;;;9.50;88.40;;;;;;5076927;28;20033;-72
2021/03/29 00:58:11;;;;;;;15.02;13.10;;;9.60;88.10;;;;;;5076951;28;20043;-73
2021/03/29 01:00:46;;;;;;;17.02;15.00;;;9.60;88.10;;;;;;5076617;28;20071;-73
2021/03/29 01:03:17;;;;;;;19.35;14.38;;;9.60;87.90;;;;;;5076704;28;20017;-73
2021/03/29 01:05:46;;;;;;;19.58;14.48;;;9.50;88.20;;;;;;5076472;28;20024;-73
2021/03/29 01:08:16;;;;;;;16.42;12.35;;;9.50;88.50;;;;;;5077509;28;20103;-72
2021/03/29 01:10:42;;;;;;;21.75;14.20;;;9.60;87.90;;;;;;5080724;28;20025;-72
2021/03/29 01:13:12;;;;;;;20.55;14.02;;;9.60;87.60;;;;;;5080560;28;20016;-71
2021/03/29 01:15:40;;;;;;;17.00;13.63;;;9.60;87.80;;;;;;5080871;28;20329;-72
2021/03/29 01:18:09;;;;;;;20.65;15.75;;;9.60;87.80;;;;;;5062770;28;20028;-72
2021/03/29 01:20:56;;;;;;;22.63;16.48;;;9.60;87.80;;;;;;5080489;28;20030;-73
2021/03/29 01:23:23;;;;;;;18.67;13.93;;;9.60;88.10;;;;;;5080741;28;20311;-71
2021/03/29 01:25:57;;;;;;;20.58;15.45;;;9.60;88.10;;;;;;5062383;28;20111;-72
2021/03/29 01:28:24;;;;;;;20.77;14.20;;;9.50;88.20;;;;;;5062536;28;20048;-73
2021/03/29 01:30:52;;;;;;;16.27;14.40;;;9.50;88.60;;;;;;5062526;28;20036;-74
2021/03/29 01:33:19;;;;;;;21.33;13.65;;;9.50;88.40;;;;;;5080169;28;20104;-72
2021/03/29 01:35:53;;;;;;;16.38;13.75;;;9.50;88.30;;;;;;5080198;28;20363;-72
2021/03/29 01:38:19;;;;;;;17.70;14.32;;;9.40;88.60;;;;;;5080090;28;20052;-71
2021/03/29 01:40:46;;;;;;;21.05;15.98;;;9.40;88.60;;;;;;5080356;28;20021;-72
2021/03/29 01:43:13;;;;;;;17.20;13.60;;;9.40;89.00;;;;;;5080004;28;20059;-72
2021/03/29 01:45:41;;;;;;;18.48;13.20;;;9.40;88.60;;;;;;5079950;28;20059;-72
2021/03/29 01:48:09;;;;;;;16.67;13.85;;;9.40;88.40;;;;;;5062260;28;20043;-72
2021/03/29 01:50:38;;;;;;;16.40;12.63;;;9.40;88.50;;;;;;5079899;28;20100;-72
2021/03/29 01:53:06;;;;;;;16.92;14.02;;;9.40;88.30;;;;;;5080042;28;20313;-72
2021/03/29 01:55:33;;;;;;;17.40;13.95;;;9.30;88.10;;;;;;5079836;28;20429;-72
2021/03/29 01:58:00;;;;;;;17.70;13.80;;;9.20;88.60;;;;;;5062089;28;20028;-72
2021/03/29 02:00:34;;;;;;;17.60;13.13;;;9.20;89.00;;;;;;5079810;28;20020;-72
2021/03/29 02:03:04;;;;;;;18.45;14.25;;;9.20;88.90;;;;;;5079790;28;20021;-72
2021/03/29 02:05:30;;;;;;;18.77;14.07;;;9.10;88.70;;;;;;5079787;28;20020;-72
2021/03/29 02:07:57;;;;;;;19.58;13.52;;;9.00;89.00;;;;;;5079513;28;20044;-71
2021/03/29 02:10:26;;;;;;;16.95;13.48;;;9.00;90.20;;;;;;5079550;28;20113;-72
2021/03/29 02:12:53;;;;;;;18.42;13.52;;;9.00;88.90;;;;;;5079418;28;20051;-72
2021/03/29 02:15:25;;;;;;;18.23;13.63;;;8.90;89.60;;;;;;5079414;28;20051;-71
2021/03/29 02:17:56;;;;;;;16.38;13.93;;;8.90;89.90;;;;;;5079657;28;20020;-72
2021/03/29 02:20:26;;;;;;;18.20;13.70;;;8.90;90.00;;;;;;5079652;28;20298;-72
2021/03/29 02:22:53;;;;;;;20.08;14.30;;;8.80;89.40;;;;;;5079472;28;20031;-73
2021/03/29 02:25:21;;;;;;;22.35;13.90;;;8.80;89.30;;;;;;5079746;28;20079;-74
2021/03/29 02:27:51;;;;;;;17.90;15.15;;;8.80;89.40;;;;;;5078963;28;20040;-73
2021/03/29 02:30:21;;;;;;;18.85;14.30;;;8.70;89.20;;;;;;5079235;28;20028;-73
2021/03/29 02:32:48;;;;;;;19.92;14.55;;;8.60;88.90;;;;;;5079071;28;20486;-73
2021/03/29 02:35:16;;;;;;;21.13;14.43;;;8.60;89.30;;;;;;5078965;28;20021;-73
2021/03/29 02:37:47;;;;;;;17.17;15.05;;;8.50;89.60;;;;;;5079295;28;20025;-71
2021/03/29 02:40:15;;;;;;;21.95;13.90;;;8.50;89.70;;;;;;5079347;28;20320;-71
2021/03/29 02:42:42;;;;;;;20.27;13.40;;;8.40;90.00;;;;;;5079000;28;20031;-71
2021/03/29 02:45:11;;;;;;;18.05;13.02;;;8.40;90.10;;;;;;5079112;28;20074;-71
2021/03/29 02:47:42;;;;;;;18.15;13.32;;;8.40;89.70;;;;;;5078731;28;20032;-72
2021/03/29 02:50:13;;;;;;;15.98;13.38;;;8.30;90.10;;;;;;5078804;28;20021;-73
2021/03/29 02:52:48;;;;;;;19.35;14.43;;;8.20;90.60;;;;;;5079044;28;20308;-73
2021/03/29 02:55:17;;;;;;;19.10;13.98;;;8.20;90.90;;;;;;5078657;28;20469;-71
2021/03/29 02:57:45;;;;;;;21.88;14.63;;;8.10;91.70;;;;;;5078729;28;20028;-72
2021/03/29 03:00:14;;;;;;;18.17;14.82;;;8.20;92.20;;;;;;5078629;28;20150;-73
2021/03/29 03:02:43;;;;;;;19.40;15.20;;;8.20;92.90;;;;;;5079065;28;20328;-72
2021/03/29 03:05:10;;;;;;;20.70;16.33;;;8.40;92.40;;;;;;5060686;28;20028;-71
2021/03/29 03:07:37;;;;;;;16.92;14.57;;;8.50;92.60;;;;;;5078612;28;20047;-71
2021/03/29 03:10:11;;;;;;;20.67;15.43;;;8.50;90.10;;;;;;5078426;28;20236;-71
2021/03/29 03:12:40;;;;;;;19.40;14.32;;;8.50;90.60;;;;;;5078466;28;20315;-71
2021/03/29 03:15:10;;;;;;;20.98;15.10;;;8.50;90.50;;;;;;5078262;28;20028;-71
2021/03/29 03:17:36;;;;;;;18.77;14.88;;;8.40;90.30;;;;;;5078809;28;20017;-71
2021/03/29 03:20:07;;;;;;;19.38;14.93;;;8.40;90.60;;;;;;5078156;28;20086;-71
2021/03/29 03:22:33;;;;;;;18.83;14.98;;;8.50;89.80;;;;;;5078692;28;20427;-71
2021/03/29 03:24:58;;;;;;;19.60;13.85;;;8.50;89.10;;;;;;5078045;28;20031;-71
2021/03/29 03:27:24;;;;;;;16.05;13.88;;;8.50;88.60;;;;;;5060221;28;20378;-71
2021/03/29 03:29:50;;;;;;;19.30;13.93;;;8.40;88.80;;;;;;5078063;28;20013;-71
2021/03/29 03:32:17;;;;;;;16.85;13.45;;;8.40;89.10;;;;;;5059672;28;20031;-71
2021/03/29 03:34:44;;;;;;;18.25;14.63;;;8.30;87.50;;;;;;5077825;28;20059;-71
2021/03/29 03:37:18;;;;;;;19.30;14.15;;;8.20;87.70;;;;;;5077891;28;20024;-71
2021/03/29 03:39:46;;;;;;;17.77;14.65;;;8.10;89.40;;;;;;5077845;28;20021;-71
2021/03/29 03:42:13;;;;;;;17.98;14.23;;;8.10;89.20;;;;;;5078048;28;20051;-71
2021/03/29 03:44:40;;;;;;;20.92;14.77;;;8.10;89.00;;;;;;5077676;28;20028;-71
2021/03/29 03:47:07;;;;;;;17.17;13.95;;;8.10;89.60;;;;;;5077666;28;20025;-71
2021/03/29 03:49:34;;;;;;;15.73;14.05;;;8.00;89.60;;;;;;5077727;28;20025;-71
2021/03/29 03:52:01;;;;;;;19.02;14.40;;;8.00;89.70;;;;;;5077578;28;20029;-71
2021/03/29 03:54:27;;;;;;;19.75;13.95;;;8.00;90.00;;;;;;5077713;28;20020;-71
2021/03/29 03:56:53;;;;;;;18.70;13.05;;;8.00;90.00;;;;;;5077503;28;20028;-71
2021/03/29 03:59:19;;;;;;;15.95;12.68;;;8.00;89.70;;;;;;5077673;28;20024;-71
2021/03/29 04:02:07;;;;;;;16.42;13.02;;;8.00;89.70;;;;;;5077375;28;20024;-71
2021/03/29 04:04:34;;;;;;;17.63;14.13;;;8.00;90.30;;;;;;5077362;28;20431;-71
2021/03/29 04:07:01;;;;;;;16.60;13.27;;;8.10;91.60;;;;;;5059494;28;20344;-71
2021/03/29 04:12:09;;;;;;;17.73;13.35;;;8.20;89.70;;;;;;5077513;28;20073;-71
2021/03/29 04:14:35;;;;;;;17.92;13.10;;;8.20;89.70;;;;;;5077153;28;20024;-71
2021/03/29 04:17:01;;;;;;;17.80;12.90;;;8.20;90.20;;;;;;5077134;28;20332;-71
2021/03/29 04:19:26;;;;;;;17.90;12.95;;;8.30;90.40;;;;;;5077220;28;20032;-71
2021/03/29 04:21:52;;;;;;;16.25;12.40;;;8.30;89.40;;;;;;5076972;28;20047;-72
2021/03/29 04:24:18;;;;;;;19.45;13.60;;;8.30;88.70;;;;;;5077317;28;20028;-71
2021/03/29 04:26:44;;;;;;;17.77;13.20;;;8.30;88.60;;;;;;5076678;28;20071;-71
2021/03/29 04:29:10;;;;;;;18.90;13.10;;;8.20;88.60;;;;;;5076961;28;20016;-71
2021/03/29 04:31:36;;;;;;;17.13;13.50;;;8.20;88.90;;;;;;5076978;28;20028;-71
2021/03/29 04:34:02;;;;;;;15.50;12.10;;;8.10;88.60;;;;;;5076881;28;20290;-71
2021/03/29 04:36:28;;;;;;;19.20;13.05;;;8.10;88.40;;;;;;5076938;28;20079;-71
2021/03/29 04:38:54;;;;;;;17.67;12.80;;;8.00;88.10;;;;;;5077011;28;20020;-71
2021/03/29 04:41:19;;;;;;;18.63;12.07;;;8.00;88.40;;;;;;5076805;28;20313;-71
2021/03/29 04:43:45;;;;;;;16.45;12.20;;;8.00;89.10;;;;;;5058085;28;20024;-71
2021/03/29 04:46:10;;;;;;;15.02;11.63;;;8.00;88.80;;;;;;5076769;28;20032;-71
2021/03/29 04:48:36;;;;;;;19.83;12.52;;;8.00;89.00;;;;;;5077007;28;20024;-71
2021/03/29 04:51:02;;;;;;;15.70;12.23;;;8.00;89.20;;;;;;5058947;28;20305;-72
2021/03/29 04:53:28;;;;;;;18.13;12.05;;;8.00;89.10;;;;;;5076526;28;20078;-71
2021/03/29 04:55:53;;;;;;;15.50;11.65;;;8.00;88.90;;;;;;5076617;28;20060;-72
2021/03/29 04:58:19;;;;;;;16.63;12.15;;;7.90;89.10;;;;;;5077100;28;20028;-73
2021/03/29 05:00:44;;;;;;;15.40;12.02;;;7.90;89.70;;;;;;5076637;28;20075;-71
2021/03/29 05:03:10;;;;;;;19.08;11.75;;;7.90;90.30;;;;;;5058729;28;20436;-72
2021/03/29 05:05:36;;;;;;;22.80;13.57;;;8.00;89.90;;;;;;5076586;28;20025;-73
2021/03/29 05:08:02;;;;;;;22.52;12.43;;;8.00;89.80;;;;;;5076986;28;20028;-72
2021/03/29 05:10:27;;;;;;;31.02;12.30;;;8.00;89.80;;;;;;5076469;28;20120;-72
2021/03/29 05:12:53;;;;;;;17.40;11.80;;;8.10;89.70;;;;;;5076757;28;20031;-73
2021/03/29 05:15:19;;;;;;;14.27;11.40;;;8.20;89.20;;;;;;5076454;28;20052;-71
2021/03/29 05:17:44;;;;;;;16.05;11.63;;;8.20;89.30;;;;;;5076796;28;20078;-71
2021/03/29 05:20:10;;;;;;;15.23;11.15;;;8.30;89.60;;;;;;5076679;28;20025;-72
2021/03/29 05:22:36;;;;;;;21.65;12.02;;;8.30;89.50;;;;;;5076422;28;20028;-73
2021/03/29 05:25:03;;;;;;;19.35;12.85;;;8.40;89.50;;;;;;5076354;28;20067;-73
2021/03/29 05:27:28;;;;;;;15.98;12.88;;;8.40;89.70;;;;;;5076142;28;20055;-73
2021/03/29 05:29:54;;;;;;;19.25;12.57;;;8.40;89.90;;;;;;5076294;28;20032;-73
2021/03/29 05:32:23;;;;;;;13.23;11.27;;;8.50;90.10;;;;;;5076534;28;20017;-73
2021/03/29 05:34:52;;;;;;;18.05;11.88;;;8.50;90.00;;;;;;5076503;28;20297;-73
2021/03/29 05:37:18;;;;;;;13.48;11.68;;;8.50;90.10;;;;;;5076512;28;20352;-73
2021/03/29 05:39:45;;;;;;;16.90;12.63;;;8.70;89.90;;;;;;5076200;28;20032;-71
2021/03/29 05:42:11;;;;;;;17.75;13.13;;;8.70;89.50;;;;;;5076322;28;20028;-71
2021/03/29 05:44:38;;;;;;;32.58;11.95;;;8.80;88.70;;;;;;5076048;28;20028;-71
2021/03/29 05:47:04;;;;;;;15.88;11.73;;;8.90;89.00;;;;;;5076255;28;20490;-71
2021/03/29 05:49:34;;;;;;;14.35;11.40;;;8.90;89.10;;;;;;5076254;28;20025;-71
2021/03/29 05:52:00;;;;;;;17.83;12.27;;;9.10;88.80;;;;;;5076075;28;20017;-71
2021/03/29 05:54:26;;;;;;;25.13;13.00;;;9.10;89.00;;;;;;5077181;28;20036;-71
2021/03/29 05:56:52;;;;;;;12.50;10.73;;;9.10;89.10;;;;;;5079782;28;20034;-72
2021/03/29 05:59:20;;;;;;;17.15;11.30;;;9.20;89.00;;;;;;5062061;28;20328;-73
2021/03/29 06:01:52;;;;;;;12.95;10.60;;;9.30;88.80;;;;;;5079725;28;20027;-73
2021/03/29 06:04:44;;;;;;;12.77;11.25;;;9.40;88.90;;;;;;5079698;28;20024;-73
2021/03/29 06:07:26;;;;;;;16.38;11.52;;;9.50;88.50;;;;;;5079555;28;20104;-73
2021/03/29 06:09:56;;;;;;;15.05;11.77;;;9.60;86.80;;;;;;5079647;28;20052;-73
2021/03/29 06:12:23;;;;;;;18.67;12.50;;;9.70;84.90;;;;;;5079780;28;20103;-73
2021/03/29 06:15:00;;;;;;;16.15;12.43;;;9.70;84.90;;;;;;5079502;28;20021;-73
2021/03/29 06:17:26;;;;;;;16.50;11.55;;;9.80;84.90;;;;;;5079834;28;20031;-74
2021/03/29 06:20:00;;;;;;;16.02;12.07;;;9.80;84.80;;;;;;5079394;28;20021;-74
2021/03/29 06:22:35;;;;;;;12.13;10.25;;;9.90;85.40;;;;;;5079245;28;20064;-72
2021/03/29 06:25:10;;;;;;;17.20;10.73;;;10.00;84.60;;;;;;5079265;28;20035;-72
2021/03/29 06:27:42;;;;;;;12.85;10.52;;;10.10;85.00;;;;;;5079106;28;20045;-73
2021/03/29 06:30:14;;;;;;;12.25;10.68;;;10.10;84.90;;;;;;5079534;28;20417;-72
2021/03/29 06:32:56;;;;;;;14.90;11.35;;;10.20;85.50;;;;;;5079367;28;20027;-74
2021/03/29 06:35:47;;;;;;;13.98;10.60;;;10.30;86.00;;;;;;5079082;28;20049;-74
2021/03/29 06:38:19;;;;;;;15.63;10.00;;;10.40;85.90;;;;;;5071042;28;20168;-74
2021/03/29 06:40:46;;;;;;;13.52;10.05;;;10.50;86.40;;;;;;5079020;28;20028;-73
2021/03/29 06:43:20;;;;;;;13.18;10.90;;;10.50;86.20;;;;;;5078841;28;20023;-74
2021/03/29 06:45:57;;;;;;;14.38;11.32;;;10.60;84.70;;;;;;5078892;28;20459;-74
2021/03/29 06:48:34;;;;;;;14.52;11.05;;;10.60;84.60;;;;;;5079160;28;20044;-74
2021/03/29 06:51:25;;;;;;;14.75;11.00;;;10.70;84.40;;;;;;5078888;28;20070;-74
2021/03/29 06:54:08;;;;;;;12.13;9.52;;;10.80;84.70;;;;;;5079242;28;20028;-72
2021/03/29 06:56:35;;;;;;;12.82;10.43;;;10.90;84.50;;;;;;5078975;28;20032;-73
2021/03/29 06:59:04;;;;;;;13.60;10.55;;;11.00;84.50;;;;;;5060942;28;20056;-74
2021/03/29 07:01:45;;;;;;;17.00;9.75;;;11.00;84.30;;;;;;5078696;28;20328;-74
2021/03/29 07:04:11;;;;;;;12.23;9.77;;;11.00;84.40;;;;;;5078685;28;20029;-74
2021/03/29 07:06:39;;;;;;;13.50;9.85;;;11.10;82.90;;;;;;5077550;28;20036;-74
2021/03/29 07:09:06;;;;;;;12.70;10.57;;;11.20;83.10;;;;;;5078493;28;20016;-74
2021/03/29 07:11:36;;;;;;;12.45;10.30;;;11.20;81.70;;;;;;5078685;28;20048;-72
2021/03/29 07:14:07;;;;;;;14.75;10.30;;;11.20;82.20;;;;;;5078613;28;20017;-73
2021/03/29 07:16:33;;;;;;;14.45;10.85;;;11.20;82.40;;;;;;5078634;28;20111;-74
2021/03/29 07:19:04;;;;;;;12.05;10.50;;;11.30;83.20;;;;;;5078340;28;20059;-74
2021/03/29 07:21:30;;;;;;;12.07;10.25;;;11.40;81.60;;;;;;5078515;28;20086;-74
2021/03/29 07:24:09;;;;;;;12.30;10.43;;;11.40;81.00;;;;;;5078543;28;20028;-74
2021/03/29 07:26:55;;;;;;;15.05;10.40;;;11.60;81.70;;;;;;5077796;28;20048;-74
2021/03/29 07:29:21;;;;;;;12.00;9.73;;;11.80;79.90;;;;;;5078072;28;20020;-72
2021/03/29 07:31:51;;;;;;;13.23;10.15;;;12.00;79.90;;;;;;5078010;28;20029;-72
2021/03/29 07:34:17;;;;;;;21.67;9.90;;;12.10;79.90;;;;;;5078166;28;20040;-72
2021/03/29 07:36:46;;;;;;;12.35;10.05;;;12.40;78.10;;;;;;5060121;28;20102;-72
2021/03/29 07:39:18;;;;;;;12.82;9.75;;;12.50;79.10;;;;;;5077999;28;20029;-72
2021/03/29 07:41:44;;;;;;;12.90;10.38;;;12.70;78.30;;;;;;5077713;28;20038;-71
2021/03/29 07:44:13;;;;;;;15.25;9.73;;;12.80;78.10;;;;;;5077677;28;20099;-72
2021/03/29 07:46:41;;;;;;;14.02;10.18;;;12.90;77.90;;;;;;5077865;28;20082;-71
2021/03/29 07:49:46;;;;;;;15.70;11.05;;;13.00;76.80;;;;;;5059933;28;20028;-71
2021/03/29 07:52:34;;;;;;;12.35;9.55;;;13.10;75.30;;;;;;5077449;28;20456;-71
2021/03/29 07:55:03;;;;;;;13.00;11.05;;;13.10;75.40;;;;;;5077532;28;20105;-72
2021/03/29 07:57:59;;;;;;;15.88;11.18;;;13.30;75.80;;;;;;5077477;28;20028;-72
2021/03/29 08:00:29;;;;;;;13.68;10.40;;;13.40;75.00;;;;;;5077613;28;20021;-71
2021/03/29 08:02:59;;;;;;;12.13;10.40;;;13.60;74.00;;;;;;5077555;28;20024;-71
2021/03/29 08:05:43;;;;;;;11.55;9.63;;;13.90;73.40;;;;;;5077288;28;20028;-72
2021/03/29 08:08:27;;;;;;;15.23;9.85;;;14.40;72.60;;;;;;5059601;28;20112;-71
2021/03/29 08:11:18;;;;;;;15.23;10.95;;;15.00;70.40;;;;;;5077813;28;20020;-71
2021/03/29 08:13:53;;;;;;;13.48;10.50;;;15.60;69.60;;;;;;5077298;28;20025;-72
2021/03/29 08:16:25;;;;;;;15.95;9.30;;;16.00;66.30;;;;;;5059484;28;20024;-72
2021/03/29 08:19:14;;;;;;;15.90;9.57;;;16.30;67.40;;;;;;5077096;28;20028;-71
2021/03/29 08:22:02;;;;;;;10.75;9.32;;;16.60;65.90;;;;;;5077243;28;20020;-71
2021/03/29 08:24:47;;;;;;;13.05;9.23;;;16.80;65.60;;;;;;5076958;28;20035;-71
2021/03/29 08:27:17;;;;;;;10.40;9.07;;;17.10;65.10;;;;;;5076754;28;20051;-71
2021/03/29 08:29:53;;;;;;;16.70;9.55;;;17.40;63.90;;;;;;5076911;28;20416;-71
2021/03/29 08:32:31;;;;;;;14.13;10.27;;;17.50;62.20;;;;;;5077013;28;20016;-71
2021/03/29 08:35:06;;;;;;;10.77;9.52;;;17.80;62.00;;;;;;5076857;28;20378;-71
2021/03/29 08:37:39;;;;;;;11.48;8.50;;;17.90;62.90;;;;;;5059153;28;20035;-71
2021/03/29 08:40:27;;;;;;;10.88;8.70;;;18.10;63.20;;;;;;5076873;28;20056;-71
2021/03/29 08:43:01;;;;;;;11.68;9.00;;;18.40;60.10;;;;;;5076789;28;20025;-71
2021/03/29 08:45:28;;;;;;;12.45;9.07;;;18.60;61.10;;;;;;5076741;28;20329;-71
2021/03/29 08:47:57;;;;;;;10.80;8.98;;;18.70;59.00;;;;;;5076646;28;20063;-71
2021/03/29 08:50:30;;;;;;;10.07;7.95;;;18.80;58.80;;;;;;5076968;28;20301;-71
2021/03/29 08:52:58;;;;;;;9.20;8.27;;;19.00;59.20;;;;;;5058973;28;20035;-71
2021/03/29 08:55:28;;;;;;;10.50;8.98;;;19.30;58.60;;;;;;5076876;28;20463;-71
2021/03/29 08:57:55;;;;;;;15.55;9.60;;;19.40;58.40;;;;;;5076661;28;20031;-71
2021/03/29 09:00:26;;;;;;;10.93;9.40;;;19.20;57.60;;;;;;5076748;28;20103;-71
2021/03/29 09:02:52;;;;;;;12.00;9.13;;;19.10;59.50;;;;;;5076576;28;20025;-71
2021/03/29 09:05:20;;;;;;;16.27;9.90;;;19.20;59.90;;;;;;5076547;28;20028;-71
2021/03/29 09:07:48;;;;;;;13.38;9.93;;;19.50;58.80;;;;;;5076781;28;20052;-71
2021/03/29 09:10:36;;;;;;;11.25;9.95;;;19.60;58.30;;;;;;5076531;28;20029;-71
2021/03/29 09:13:13;;;;;;;10.45;9.18;;;20.00;57.90;;;;;;5076583;28;20024;-71
2021/03/29 09:15:41;;;;;;;13.02;10.32;;;20.50;56.40;;;;;;5076691;28;20029;-71
2021/03/29 09:18:07;;;;;;;15.27;9.15;;;20.30;55.30;;;;;;5076434;28;20021;-71
2021/03/29 09:20:37;;;;;;;14.43;9.98;;;20.20;57.70;;;;;;5076697;28;20113;-71
2021/03/29 09:23:04;;;;;;;14.38;9.50;;;20.60;56.00;;;;;;5076250;28;20028;-71
2021/03/29 09:25:38;;;;;;;12.68;9.50;;;20.60;55.30;;;;;;5076695;28;20116;-71
2021/03/29 09:28:21;;;;;;;14.05;9.02;;;20.90;56.20;;;;;;5076144;28;20037;-71
2021/03/29 09:30:52;;;;;;;13.32;9.35;;;21.20;55.10;;;;;;5079659;28;20320;-71
2021/03/29 09:33:20;;;;;;;11.68;9.50;;;21.70;55.00;;;;;;5080383;28;20021;-71
2021/03/29 09:35:47;;;;;;;12.80;9.15;;;21.60;52.80;;;;;;5080222;28;20432;-71
2021/03/29 09:38:14;;;;;;;14.43;9.68;;;21.20;55.10;;;;;;5080461;28;20328;-71
2021/03/29 09:40:40;;;;;;;11.50;9.65;;;20.80;54.30;;;;;;5080168;28;20024;-71
2021/03/29 09:43:06;;;;;;;11.00;9.77;;;20.60;56.10;;;;;;5080027;28;20020;-71
2021/03/29 09:45:34;;;;;;;14.25;10.52;;;20.20;58.00;;;;;;5080249;28;20059;-71
2021/03/29 09:48:08;;;;;;;15.63;10.63;;;19.70;57.90;;;;;;5080266;28;20021;-71
2021/03/29 09:50:37;;;;;;;12.30;10.25;;;19.50;57.10;;;;;;5079925;28;20020;-71
2021/03/29 09:53:15;;;;;;;13.07;9.75;;;19.00;60.60;;;;;;5079930;28;20158;-71
2021/03/29 09:55:51;;;;;;;12.40;10.20;;;19.20;60.20;;;;;;5079879;28;20103;-71
2021/03/29 09:58:28;;;;;;;13.80;10.85;;;19.50;58.80;;;;;;5079798;28;20024;-71
2021/03/29 10:00:56;;;;;;;12.43;11.13;;;19.90;57.70;;;;;;5062095;28;20374;-71
2021/03/29 10:03:23;;;;;;;14.48;10.77;;;20.10;56.20;;;;;;5079645;28;20017;-71
2021/03/29 10:05:51;;;;;;;22.30;12.18;;;20.20;57.80;;;;;;5079896;28;20367;-71
2021/03/29 10:08:35;;;;;;;14.25;11.40;;;20.40;57.40;;;;;;5061959;28;20071;-70
2021/03/29 10:11:02;;;;;;;15.40;11.82;;;20.30;58.30;;;;;;5079565;28;20017;-73
2021/03/29 10:13:39;;;;;;;16.52;11.63;;;20.10;57.90;;;;;;5081165;28;20166;-72
2021/03/29 10:16:19;;;;;;;13.07;11.65;;;20.00;57.30;;;;;;5088365;28;20021;-72
2021/03/29 10:18:46;;;;;;;14.63;11.85;;;20.10;57.60;;;;;;5079442;28;20025;-72
2021/03/29 10:21:13;;;;;;;17.88;12.40;;;20.40;56.80;;;;;;5079433;28;20032;-72
2021/03/29 10:23:42;;;;;;;13.70;11.38;;;20.00;59.10;;;;;;5061644;28;20412;-72
2021/03/29 10:26:19;;;;;;;13.35;10.50;;;20.10;59.60;;;;;;5079045;28;20094;-72
2021/03/29 10:29:02;;;;;;;13.27;11.23;;;20.10;58.10;;;;;;5079689;28;20426;-72
2021/03/29 10:31:30;;;;;;;13.85;11.60;;;20.20;57.10;;;;;;5079274;28;20077;-72
2021/03/29 10:33:57;;;;;;;17.70;11.50;;;20.20;57.00;;;;;;5079180;28;20032;-72
2021/03/29 10:36:25;;;;;;;16.75;12.10;;;20.40;57.40;;;;;;5079187;28;20328;-72
2021/03/29 10:38:52;;;;;;;13.20;11.82;;;20.30;56.40;;;;;;5079113;28;20028;-72
2021/03/29 10:41:18;;;;;;;14.57;12.02;;;20.40;57.60;;;;;;5077651;28;20029;-72
2021/03/29 10:43:44;;;;;;;13.82;11.75;;;20.60;55.80;;;;;;5078891;28;20032;-72
2021/03/29 10:46:10;;;;;;;14.85;11.02;;;20.90;56.60;;;;;;5078907;28;20366;-72
2021/03/29 10:48:36;;;;;;;14.90;11.18;;;21.00;56.60;;;;;;5078903;28;20032;-72
2021/03/29 10:51:04;;;;;;;14.65;11.20;;;21.20;56.50;;;;;;5061117;28;20103;-72
2021/03/29 10:53:30;;;;;;;16.35;11.18;;;21.20;55.30;;;;;;5078694;28;20320;-72
2021/03/29 10:55:56;;;;;;;15.02;11.15;;;21.40;56.00;;;;;;5078807;28;20095;-72
2021/03/29 10:58:22;;;;;;;15.35;11.57;;;21.50;55.20;;;;;;5079219;28;20025;-72
2021/03/29 11:00:48;;;;;;;14.35;12.07;;;21.30;55.30;;;;;;5078715;28;20017;-72
2021/03/29 11:03:14;;;;;;;16.10;12.25;;;21.30;55.90;;;;;;5078597;28;20024;-72
2021/03/29 11:05:39;;;;;;;13.63;11.43;;;21.50;55.80;;;;;;5078606;28;20055;-72
2021/03/29 11:08:05;;;;;;;13.20;11.52;;;21.40;56.60;;;;;;5078480;28;20021;-72
2021/03/29 11:10:33;;;;;;;14.95;11.90;;;21.30;54.50;;;;;;5078522;28;20021;-72
2021/03/29 11:12:59;;;;;;;13.85;11.60;;;21.40;55.00;;;;;;5078458;28;20066;-72
2021/03/29 11:15:24;;;;;;;16.90;12.32;;;21.60;53.50;;;;;;5078480;28;20095;-72
2021/03/29 11:17:50;;;;;;;12.23;10.55;;;21.50;55.10;;;;;;5078377;28;20031;-72
2021/03/29 11:20:16;;;;;;;13.23;11.38;;;21.60;55.80;;;;;;5060604;28;20029;-72
2021/03/29 11:22:43;;;;;;;12.23;10.93;;;21.80;55.30;;;;;;5078358;28;20032;-72
2021/03/29 11:25:09;;;;;;;13.85;11.48;;;21.80;55.90;;;;;;5060363;28;20025;-72
2021/03/29 11:27:35;;;;;;;14.20;12.25;;;21.70;55.40;;;;;;5077817;28;20090;-72
2021/03/29 11:30:04;;;;;;;16.20;11.73;;;21.60;54.20;;;;;;5078328;28;20017;-73
2021/03/29 11:32:29;;;;;;;13.35;11.82;;;21.70;55.30;;;;;;5078277;28;20025;-72
2021/03/29 11:34:55;;;;;;;12.82;11.63;;;22.00;55.10;;;;;;5060153;28;20442;-72
2021/03/29 11:37:21;;;;;;;14.35;12.32;;;22.00;54.00;;;;;;5077955;28;20028;-72
2021/03/29 11:39:47;;;;;;;17.20;12.60;;;22.00;54.00;;;;;;5078144;28;20032;-72
2021/03/29 11:42:13;;;;;;;14.73;12.75;;;21.60;56.00;;;;;;5077833;28;20327;-72
2021/03/29 11:44:39;;;;;;;14.48;12.55;;;21.40;54.80;;;;;;5077733;28;20104;-72
2021/03/29 11:47:04;;;;;;;18.25;11.95;;;21.20;55.30;;;;;;5077639;28;20413;-73
2021/03/29 11:49:30;;;;;;;12.88;11.57;;;21.50;57.90;;;;;;5077821;28;20044;-72
2021/03/29 11:51:56;;;;;;;13.98;12.40;;;21.80;54.60;;;;;;5077145;28;20104;-72
2021/03/29 11:54:22;;;;;;;14.07;12.65;;;21.50;54.80;;;;;;5077545;28;20024;-72
2021/03/29 11:56:47;;;;;;;18.40;11.65;;;21.30;57.30;;;;;;5077540;28;20099;-72
2021/03/29 11:59:14;;;;;;;17.63;13.02;;;21.40;57.20;;;;;;5077514;28;20440;-72
2021/03/29 12:01:47;;;;;;;14.80;12.73;;;21.30;55.60;;;;;;5078072;28;20063;-72
2021/03/29 12:04:32;;;;;;;22.33;13.02;;;21.00;57.30;;;;;;5077451;28;20028;-72
2021/03/29 12:07:08;;;;;;;17.10;14.00;;;20.90;55.60;;;;;;5077482;28;20043;-72
2021/03/29 12:12:18;;;;;;;17.08;12.93;;;20.60;56.20;;;;;;5077518;28;20066;-72
2021/03/29 12:14:47;;;;;;;17.05;13.68;;;20.50;56.80;;;;;;5059416;28;20021;-72
2021/03/29 12:17:14;;;;;;;14.95;13.45;;;20.50;58.70;;;;;;5077236;28;20139;-72
2021/03/29 12:19:44;;;;;;;17.10;13.50;;;20.30;56.90;;;;;;5077231;28;20013;-72
2021/03/29 12:22:14;;;;;;;16.42;12.82;;;20.00;56.70;;;;;;5077144;28;20099;-72
2021/03/29 12:24:51;;;;;;;20.67;14.45;;;19.70;60.30;;;;;;5077175;28;20313;-73
2021/03/29 12:27:19;;;;;;;17.63;13.48;;;19.70;59.80;;;;;;5076746;28;20112;-72
2021/03/29 12:29:46;;;;;;;15.73;13.48;;;19.80;61.60;;;;;;5076928;28;20028;-72
2021/03/29 12:32:14;;;;;;;17.73;14.63;;;19.80;59.70;;;;;;5076994;28;20427;-72
2021/03/29 12:34:44;;;;;;;18.40;13.75;;;19.40;61.30;;;;;;5059391;28;20286;-72
2021/03/29 12:37:15;;;;;;;18.85;15.07;;;19.10;61.30;;;;;;5076861;28;20032;-72
2021/03/29 12:39:56;;;;;;;21.98;14.90;;;18.90;62.90;;;;;;5076898;28;20013;-72
2021/03/29 12:42:26;;;;;;;16.45;14.80;;;18.80;62.90;;;;;;5059099;28;20032;-72
2021/03/29 12:44:54;;;;;;;18.90;13.93;;;18.80;62.90;;;;;;5058992;28;20031;-72
2021/03/29 12:47:28;;;;;;;16.00;14.27;;;18.80;62.30;;;;;;5076733;28;20029;-72
2021/03/29 12:49:54;;;;;;;19.25;15.25;;;18.70;61.80;;;;;;5076716;28;20082;-72
2021/03/29 12:52:20;;;;;;;19.02;15.25;;;18.70;61.20;;;;;;5076831;28;20404;-72